Time;durP1;ratioP1;P1;durP2;ratioP2;P2;SDS_P1;SDS_P2;PMS_P1;PMS_P2;Temp;Humidity;BMP_temperature;BMP_pressure;BME280_temperature;BME280_humidity;BME280_pressure;Samples;Min_cycle;Max_cycle;Signal;HPM_P1;HPM_P2
2022/08/19 00:00:34;;;;;;;31.23;27.83;;;18.20;99.90;;;;;;5033363;28;20202;-52
2022/08/19 00:03:03;;;;;;;28.67;25.57;;;18.20;99.90;;;;;;5033233;28;20229;-53
2022/08/19 00:05:31;;;;;;;24.30;21.90;;;18.20;99.90;;;;;;5031327;28;20631;-52
2022/08/19 00:07:58;;;;;;;28.13;24.77;;;18.10;99.90;;;;;;5032307;28;20276;-53
2022/08/19 00:10:26;;;;;;;30.77;27.00;;;18.20;99.90;;;;;;5033188;28;20198;-53
2022/08/19 00:12:53;;;;;;;28.87;25.63;;;18.20;99.90;;;;;;5033185;28;20207;-52
2022/08/19 00:15:23;;;;;;;28.43;24.07;;;18.20;99.90;;;;;;5032932;28;20276;-52
2022/08/19 00:17:50;;;;;;;30.27;25.33;;;18.20;99.90;;;;;;5023967;28;20220;-53
2022/08/19 00:20:20;;;;;;;28.20;25.30;;;18.20;99.90;;;;;;5032046;28;20202;-52
2022/08/19 00:22:48;;;;;;;31.50;27.97;;;18.20;99.90;;;;;;5032739;28;20272;-54
2022/08/19 00:25:16;;;;;;;28.23;24.07;;;18.20;99.90;;;;;;5031915;28;20676;-53
2022/08/19 00:27:44;;;;;;;29.60;26.53;;;18.20;99.90;;;;;;5032187;28;20209;-53
2022/08/19 00:30:12;;;;;;;31.63;27.27;;;18.20;99.90;;;;;;5032766;28;20249;-53
2022/08/19 00:32:40;;;;;;;29.80;26.60;;;18.20;99.90;;;;;;5032733;28;20293;-52
2022/08/19 00:35:09;;;;;;;32.17;27.97;;;18.20;99.90;;;;;;5032499;28;20231;-52
2022/08/19 00:37:36;;;;;;;29.00;25.87;;;18.20;99.90;;;;;;5023810;28;20569;-52
2022/08/19 00:40:05;;;;;;;30.23;26.13;;;18.20;99.90;;;;;;5021409;28;20199;-52
2022/08/19 00:42:32;;;;;;;30.27;25.57;;;18.20;99.90;;;;;;5032413;28;20214;-53
2022/08/19 00:45:01;;;;;;;25.33;22.63;;;18.20;99.90;;;;;;5032249;28;20284;-53
2022/08/19 00:47:28;;;;;;;23.47;20.93;;;18.20;99.90;;;;;;5032390;28;20211;-53
2022/08/19 00:49:58;;;;;;;23.80;21.30;;;18.10;99.90;;;;;;5032481;28;20256;-53
2022/08/19 00:52:29;;;;;;;23.50;21.13;;;18.10;99.90;;;;;;5029673;28;20198;-53
2022/08/19 00:54:58;;;;;;;28.37;22.33;;;18.10;99.90;;;;;;5031804;28;20257;-53
2022/08/19 00:57:31;;;;;;;25.00;22.33;;;18.10;99.90;;;;;;5031340;28;20684;-53
2022/08/19 01:00:02;;;;;;;29.63;23.90;;;18.10;99.90;;;;;;5031503;28;20644;-52
2022/08/19 01:02:30;;;;;;;28.23;25.27;;;18.10;99.90;;;;;;5032232;28;20325;-53
2022/08/19 01:04:58;;;;;;;30.63;27.17;;;18.10;99.90;;;;;;5027317;28;20214;-53
2022/08/19 01:07:25;;;;;;;29.53;26.40;;;18.10;99.90;;;;;;5029167;28;20195;-53
2022/08/19 01:09:52;;;;;;;32.30;25.73;;;18.10;99.90;;;;;;5031075;28;20202;-52
2022/08/19 01:12:19;;;;;;;32.90;27.87;;;18.10;99.90;;;;;;5032152;28;20190;-53
2022/08/19 01:14:47;;;;;;;32.23;27.27;;;18.10;99.90;;;;;;5022410;28;20738;-53
2022/08/19 01:17:17;;;;;;;31.90;27.17;;;18.10;99.90;;;;;;5030994;28;20220;-53
2022/08/19 01:19:44;;;;;;;30.60;26.03;;;18.10;99.90;;;;;;5021716;28;20207;-53
2022/08/19 01:22:19;;;;;;;28.07;24.67;;;18.10;99.90;;;;;;5031062;28;20655;-52
2022/08/19 01:24:48;;;;;;;29.63;25.47;;;18.10;99.90;;;;;;5028587;28;20240;-52
2022/08/19 01:27:15;;;;;;;26.10;23.30;;;18.10;99.90;;;;;;5031717;28;20202;-53
2022/08/19 01:29:44;;;;;;;26.43;22.90;;;18.10;99.90;;;;;;5030459;28;20583;-53
2022/08/19 01:32:16;;;;;;;27.60;24.60;;;18.10;99.90;;;;;;5031853;28;20222;-53
2022/08/19 01:34:46;;;;;;;25.70;23.07;;;18.10;99.90;;;;;;5015263;28;20643;-52
2022/08/19 01:37:15;;;;;;;28.43;24.60;;;18.10;99.90;;;;;;5031971;28;20205;-52
2022/08/19 01:39:43;;;;;;;28.40;25.30;;;18.10;99.90;;;;;;5029639;28;20253;-52
2022/08/19 01:42:12;;;;;;;29.00;25.17;;;18.10;99.90;;;;;;5030916;28;20264;-53
2022/08/19 01:44:40;;;;;;;25.43;22.43;;;18.10;99.90;;;;;;5022202;28;20250;-53
2022/08/19 01:47:09;;;;;;;23.10;20.60;;;18.00;99.90;;;;;;5030506;28;20332;-52
2022/08/19 01:49:37;;;;;;;24.40;21.90;;;18.00;99.90;;;;;;5023575;28;20194;-53
2022/08/19 01:52:06;;;;;;;23.73;21.23;;;18.00;99.90;;;;;;5031409;28;20194;-53
2022/08/19 01:54:33;;;;;;;25.27;22.67;;;18.10;99.90;;;;;;5029894;28;20217;-52
2022/08/19 01:57:09;;;;;;;23.33;20.93;;;18.00;99.90;;;;;;5030412;28;20198;-52
2022/08/19 01:59:38;;;;;;;26.80;22.43;;;18.00;99.90;;;;;;5031178;28;20194;-54
2022/08/19 02:02:07;;;;;;;23.70;21.33;;;18.00;99.90;;;;;;5030924;28;20615;-53
2022/08/19 02:04:34;;;;;;;25.13;22.37;;;18.00;99.90;;;;;;5031279;28;20222;-53
2022/08/19 02:07:01;;;;;;;22.47;20.23;;;18.00;99.90;;;;;;5029787;28;20289;-52
2022/08/19 02:09:28;;;;;;;21.07;18.97;;;17.90;99.90;;;;;;5034131;28;20581;-52
2022/08/19 02:11:55;;;;;;;17.87;16.17;;;18.00;99.90;;;;;;5035255;28;20256;-53
2022/08/19 02:14:23;;;;;;;16.50;15.00;;;18.00;99.90;;;;;;5035062;28;20630;-52
2022/08/19 02:16:51;;;;;;;15.47;14.13;;;18.00;99.90;;;;;;5034479;28;20206;-53
2022/08/19 02:19:18;;;;;;;19.50;17.63;;;18.00;99.90;;;;;;5032531;28;20218;-53
2022/08/19 02:21:45;;;;;;;19.30;17.40;;;18.00;99.90;;;;;;5034967;28;20217;-53
2022/08/19 02:24:12;;;;;;;19.07;17.37;;;18.00;99.90;;;;;;5035053;28;20202;-53
2022/08/19 02:26:39;;;;;;;20.63;18.43;;;18.10;99.90;;;;;;5023857;28;20207;-52
2022/08/19 02:29:06;;;;;;;19.97;17.90;;;18.10;99.90;;;;;;5025918;28;20206;-52
2022/08/19 02:31:34;;;;;;;19.20;17.30;;;18.10;99.90;;;;;;5032765;28;20202;-52
2022/08/19 02:34:03;;;;;;;19.90;17.70;;;18.10;99.90;;;;;;5024740;28;20199;-52
2022/08/19 02:36:30;;;;;;;16.40;14.90;;;18.10;99.90;;;;;;5034836;28;20719;-53
2022/08/19 02:38:56;;;;;;;16.80;15.40;;;18.10;99.90;;;;;;5034957;28;20206;-52
2022/08/19 02:41:26;;;;;;;16.20;14.83;;;18.10;99.90;;;;;;5032531;28;20554;-52
2022/08/19 02:43:53;;;;;;;15.70;13.80;;;18.10;99.90;;;;;;5025513;28;20718;-53
2022/08/19 02:46:24;;;;;;;11.67;10.70;;;18.10;99.90;;;;;;5025147;28;20265;-53
2022/08/19 02:48:53;;;;;;;13.27;12.27;;;18.00;99.90;;;;;;5030520;28;20253;-53
2022/08/19 02:51:24;;;;;;;14.20;12.90;;;18.00;99.90;;;;;;5029121;28;20199;-52
2022/08/19 02:53:51;;;;;;;13.20;12.20;;;18.00;99.90;;;;;;5034493;28;20206;-53
2022/08/19 02:56:19;;;;;;;13.57;12.50;;;18.00;99.90;;;;;;5033808;28;20221;-52
2022/08/19 02:58:46;;;;;;;12.97;11.87;;;18.00;99.90;;;;;;5029103;28;20621;-52
2022/08/19 03:01:21;;;;;;;14.03;12.90;;;18.00;99.90;;;;;;5031959;28;20660;-53
2022/08/19 03:03:48;;;;;;;13.13;12.13;;;18.00;99.90;;;;;;5032950;28;20214;-53
2022/08/19 03:06:16;;;;;;;12.50;11.53;;;18.10;99.90;;;;;;5024625;28;20713;-53
2022/08/19 03:08:46;;;;;;;14.57;13.17;;;18.00;99.90;;;;;;5034148;28;20214;-52
2022/08/19 03:11:14;;;;;;;14.10;13.00;;;18.00;99.90;;;;;;5032900;28;20281;-53
2022/08/19 03:13:43;;;;;;;13.00;11.97;;;18.00;99.90;;;;;;5030381;28;20214;-52
2022/08/19 03:16:10;;;;;;;13.63;12.53;;;17.90;99.90;;;;;;5033628;28;20230;-54
2022/08/19 03:18:38;;;;;;;12.00;11.10;;;17.90;99.90;;;;;;5032840;28;20198;-53
2022/08/19 03:21:05;;;;;;;12.60;11.63;;;17.90;99.90;;;;;;5033188;28;20194;-53
2022/08/19 03:23:33;;;;;;;16.67;15.17;;;17.90;99.90;;;;;;5031275;28;20223;-53
2022/08/19 03:26:05;;;;;;;16.37;14.87;;;17.90;99.90;;;;;;5034075;28;20218;-53
2022/08/19 03:28:32;;;;;;;17.20;15.63;;;17.90;99.90;;;;;;5026321;28;20673;-53
2022/08/19 03:31:01;;;;;;;17.33;15.73;;;17.90;99.90;;;;;;5033787;28;20205;-52
2022/08/19 03:33:30;;;;;;;16.53;15.03;;;17.90;99.90;;;;;;5032953;28;20194;-53
2022/08/19 03:36:07;;;;;;;14.80;13.60;;;17.90;99.90;;;;;;5030607;28;20790;-53
2022/08/19 03:38:35;;;;;;;18.80;16.87;;;18.00;99.90;;;;;;5033753;28;20226;-52
2022/08/19 03:41:10;;;;;;;16.27;14.77;;;17.90;99.90;;;;;;5033826;28;20202;-53
2022/08/19 03:43:38;;;;;;;15.37;13.87;;;17.90;99.90;;;;;;5024306;28;20221;-53
2022/08/19 03:46:07;;;;;;;14.63;13.33;;;17.90;99.90;;;;;;5033677;28;20214;-52
2022/08/19 03:48:35;;;;;;;17.73;15.97;;;17.90;99.90;;;;;;5026235;28;20195;-53
2022/08/19 03:51:03;;;;;;;19.50;17.70;;;17.90;99.90;;;;;;5033283;28;20227;-53
2022/08/19 03:53:32;;;;;;;18.57;16.70;;;17.90;99.90;;;;;;5033630;28;20194;-52
2022/08/19 03:55:59;;;;;;;17.63;15.93;;;18.00;99.90;;;;;;5032279;28;20233;-52
2022/08/19 03:58:29;;;;;;;19.93;18.00;;;18.00;99.90;;;;;;5024078;28;20207;-52
2022/08/19 04:00:56;;;;;;;19.20;17.30;;;18.00;99.90;;;;;;5023139;28;20270;-53
2022/08/19 04:03:24;;;;;;;20.53;18.63;;;17.90;99.90;;;;;;5031866;28;20214;-53
2022/08/19 04:05:51;;;;;;;20.10;17.77;;;17.90;99.90;;;;;;5019497;28;20716;-53
2022/08/19 04:08:19;;;;;;;18.07;16.47;;;17.90;99.90;;;;;;5018919;28;20200;-53
2022/08/19 04:10:47;;;;;;;19.13;17.33;;;17.90;99.90;;;;;;5023780;28;20396;-53
2022/08/19 04:13:14;;;;;;;19.53;17.83;;;17.90;99.90;;;;;;5018015;28;20241;-53
2022/08/19 04:15:46;;;;;;;23.73;19.97;;;17.90;99.90;;;;;;5019137;28;20575;-52
2022/08/19 04:18:14;;;;;;;18.50;16.70;;;17.90;99.90;;;;;;5019435;28;20673;-53
2022/08/19 04:20:44;;;;;;;19.60;17.90;;;17.90;99.90;;;;;;5021303;28;20575;-53
2022/08/19 04:23:12;;;;;;;17.83;16.23;;;17.90;99.90;;;;;;5019911;28;20222;-54
2022/08/19 04:25:41;;;;;;;20.43;18.30;;;17.80;99.90;;;;;;5017883;28;20250;-53
2022/08/19 04:28:10;;;;;;;17.33;15.67;;;17.80;99.90;;;;;;5011374;28;20226;-52
2022/08/19 04:30:44;;;;;;;19.97;17.80;;;17.90;99.90;;;;;;5023431;28;20234;-52
2022/08/19 04:33:12;;;;;;;19.17;17.37;;;17.90;99.90;;;;;;5026043;28;20195;-53
2022/08/19 04:35:42;;;;;;;20.10;18.20;;;17.80;99.90;;;;;;5031623;28;20707;-53
2022/08/19 04:38:11;;;;;;;18.70;16.87;;;17.80;99.90;;;;;;5024043;28;20201;-53
2022/08/19 04:43:27;;;;;;;18.13;16.40;;;17.80;99.90;;;;;;5022547;28;20253;-53
2022/08/19 04:45:56;;;;;;;17.33;15.63;;;17.80;99.90;;;;;;5019382;28;20219;-52
2022/08/19 04:48:26;;;;;;;19.63;17.63;;;17.80;99.90;;;;;;5028706;28;20666;-52
2022/08/19 04:50:57;;;;;;;18.67;16.90;;;17.80;99.90;;;;;;5028155;28;20279;-52
2022/08/19 04:53:25;;;;;;;17.80;16.10;;;17.90;99.90;;;;;;5028446;28;20732;-53
2022/08/19 04:55:52;;;;;;;19.53;17.67;;;17.90;99.90;;;;;;5027767;28;20306;-52
2022/08/19 04:58:19;;;;;;;20.60;18.43;;;17.90;99.90;;;;;;5020467;28;20195;-53
2022/08/19 05:00:46;;;;;;;17.97;16.27;;;17.90;99.90;;;;;;5011743;28;20261;-53
2022/08/19 05:03:16;;;;;;;18.57;16.97;;;17.90;99.90;;;;;;5019741;28;20222;-53
2022/08/19 05:05:45;;;;;;;19.47;17.57;;;17.90;99.90;;;;;;5024564;28;20299;-53
2022/08/19 05:08:13;;;;;;;17.50;15.70;;;17.90;99.90;;;;;;5020715;28;20202;-53
2022/08/19 05:10:41;;;;;;;17.50;15.90;;;17.90;99.90;;;;;;5027856;28;20202;-52
2022/08/19 05:13:10;;;;;;;17.33;15.63;;;17.90;99.90;;;;;;5030470;28;20203;-53
2022/08/19 05:15:37;;;;;;;16.60;15.03;;;17.90;99.90;;;;;;5030399;28;20237;-53
2022/08/19 05:23:34;;;;;;;15.50;14.10;;;17.90;99.90;;;;;;5012912;28;20281;-52
2022/08/19 05:26:02;;;;;;;13.90;12.60;;;17.90;99.90;;;;;;5028219;28;20226;-53
2022/08/19 05:28:29;;;;;;;17.17;15.77;;;17.90;99.90;;;;;;5027239;28;20206;-53
2022/08/19 05:30:56;;;;;;;15.13;13.83;;;17.90;99.90;;;;;;5022309;28;20206;-52
2022/08/19 05:33:24;;;;;;;13.70;12.57;;;17.90;99.90;;;;;;5015231;28;20190;-53
2022/08/19 05:35:52;;;;;;;16.17;14.27;;;17.90;99.90;;;;;;5014288;28;20266;-53
2022/08/19 05:38:19;;;;;;;15.97;14.37;;;17.90;99.90;;;;;;5020152;28;20548;-53
2022/08/19 05:40:47;;;;;;;17.60;15.43;;;17.90;99.90;;;;;;5029749;28;21690;-53
2022/08/19 05:43:16;;;;;;;17.97;16.40;;;17.90;99.90;;;;;;5023598;28;20276;-53
2022/08/19 05:45:44;;;;;;;17.60;15.90;;;17.90;99.90;;;;;;5015059;28;20314;-53
2022/08/19 05:48:12;;;;;;;16.60;14.90;;;17.90;99.90;;;;;;5026070;28;20579;-53
2022/08/19 05:50:41;;;;;;;18.53;16.60;;;17.90;99.90;;;;;;5012402;28;20274;-53
2022/08/19 05:53:09;;;;;;;15.63;14.30;;;17.90;99.90;;;;;;5021901;28;20207;-53
2022/08/19 05:55:38;;;;;;;17.73;15.93;;;17.90;99.90;;;;;;5029787;28;20226;-53
2022/08/19 05:58:08;;;;;;;17.90;16.10;;;17.90;99.90;;;;;;5027977;28;20294;-53
2022/08/19 06:00:35;;;;;;;17.17;15.47;;;17.90;99.90;;;;;;5019881;28;20191;-53
2022/08/19 06:03:06;;;;;;;18.63;16.57;;;17.90;99.90;;;;;;5011251;28;20195;-52
2022/08/19 06:05:33;;;;;;;16.30;14.73;;;17.90;99.90;;;;;;5012619;28;20219;-52
2022/08/19 06:08:00;;;;;;;15.03;13.53;;;17.90;99.90;;;;;;5019423;28;20218;-52
2022/08/19 06:10:29;;;;;;;17.73;15.80;;;17.80;99.90;;;;;;5026876;28;20579;-52
2022/08/19 06:12:56;;;;;;;18.13;16.03;;;17.80;99.90;;;;;;5024256;28;20214;-53
2022/08/19 06:15:25;;;;;;;15.00;13.47;;;17.80;99.90;;;;;;5014661;28;20261;-52
2022/08/19 06:17:52;;;;;;;16.03;14.53;;;17.80;99.90;;;;;;5013042;28;20665;-53
2022/08/19 06:20:20;;;;;;;15.30;13.93;;;17.80;99.90;;;;;;5015399;28;20202;-53
2022/08/19 06:22:50;;;;;;;15.23;13.87;;;17.90;99.90;;;;;;5021590;28;20255;-53
2022/08/19 06:25:17;;;;;;;14.23;12.93;;;17.80;99.90;;;;;;5023587;28;20234;-52
2022/08/19 06:27:46;;;;;;;13.23;12.13;;;17.80;99.90;;;;;;5021278;28;20290;-53
2022/08/19 06:30:13;;;;;;;13.83;12.63;;;17.80;99.90;;;;;;5030921;28;20205;-53
2022/08/19 06:32:40;;;;;;;13.53;12.27;;;17.80;99.90;;;;;;5029923;28;20206;-53
2022/08/19 06:35:08;;;;;;;15.00;13.60;;;17.80;99.90;;;;;;5030033;28;20634;-52
2022/08/19 06:37:36;;;;;;;13.80;12.50;;;17.80;99.90;;;;;;5026652;28;20297;-53
2022/08/19 06:40:05;;;;;;;12.77;11.43;;;17.80;99.90;;;;;;5029312;28;20202;-52
2022/08/19 06:42:32;;;;;;;14.10;12.80;;;17.70;99.90;;;;;;5029501;28;20288;-52
2022/08/19 06:45:03;;;;;;;15.63;13.37;;;17.70;99.90;;;;;;5022593;28;20865;-52
2022/08/19 06:47:32;;;;;;;15.13;13.73;;;17.80;99.90;;;;;;5026104;28;20230;-52
2022/08/19 06:50:02;;;;;;;16.17;14.63;;;17.80;99.90;;;;;;5030078;28;20253;-53
2022/08/19 06:52:29;;;;;;;16.60;15.00;;;17.70;99.90;;;;;;5029885;28;20672;-52
2022/08/19 06:54:57;;;;;;;17.30;15.63;;;17.70;99.90;;;;;;5023745;28;20716;-53
2022/08/19 06:57:25;;;;;;;17.73;15.83;;;17.60;99.90;;;;;;5032634;28;20207;-53
2022/08/19 06:59:52;;;;;;;16.93;15.30;;;17.60;99.90;;;;;;5029688;28;20207;-53
2022/08/19 07:02:21;;;;;;;15.57;14.17;;;17.60;99.90;;;;;;5030570;28;20202;-52
2022/08/19 07:04:48;;;;;;;16.33;14.80;;;17.60;99.90;;;;;;5034273;28;20227;-52
2022/08/19 07:07:16;;;;;;;14.90;13.53;;;17.60;99.90;;;;;;5032455;28;20198;-53
2022/08/19 07:09:45;;;;;;;15.07;13.87;;;17.60;99.90;;;;;;5034274;28;20213;-53
2022/08/19 07:12:15;;;;;;;14.07;12.90;;;17.60;99.90;;;;;;5027911;28;20658;-52
2022/08/19 07:14:45;;;;;;;15.43;14.03;;;17.50;99.90;;;;;;5027872;28;20214;-52
2022/08/19 07:17:13;;;;;;;14.53;13.23;;;17.50;99.90;;;;;;5021469;28;20701;-52
2022/08/19 07:19:43;;;;;;;15.47;13.97;;;17.50;99.90;;;;;;5018990;28;20211;-52
2022/08/19 07:22:10;;;;;;;17.77;16.13;;;17.40;99.90;;;;;;5018997;28;20206;-52
2022/08/19 07:24:39;;;;;;;16.30;14.90;;;17.40;99.90;;;;;;5024496;28;20600;-52
2022/08/19 07:27:07;;;;;;;15.17;13.87;;;17.30;99.90;;;;;;5014671;28;20192;-52
2022/08/19 07:29:36;;;;;;;16.77;15.37;;;17.30;99.90;;;;;;5014594;28;20195;-52
2022/08/19 07:32:05;;;;;;;16.00;14.40;;;17.30;99.90;;;;;;5026311;28;20226;-52
2022/08/19 07:34:36;;;;;;;16.10;14.30;;;17.30;99.90;;;;;;5014154;28;20191;-53
2022/08/19 07:37:06;;;;;;;15.60;14.17;;;17.30;99.90;;;;;;5016481;28;20226;-52
2022/08/19 07:39:36;;;;;;;15.57;14.17;;;17.30;99.90;;;;;;5028660;28;20198;-52
2022/08/19 07:42:08;;;;;;;17.33;15.63;;;17.20;99.90;;;;;;5032450;28;20203;-52
2022/08/19 07:44:36;;;;;;;17.83;16.03;;;17.30;99.90;;;;;;5029961;28;20219;-51
2022/08/19 07:47:06;;;;;;;16.40;14.70;;;17.30;99.90;;;;;;5024634;28;20665;-51
2022/08/19 07:49:35;;;;;;;16.73;13.70;;;17.30;99.90;;;;;;5013998;28;20747;-51
2022/08/19 07:52:08;;;;;;;18.40;16.50;;;17.20;99.90;;;;;;5027067;28;20198;-52
2022/08/19 07:54:37;;;;;;;15.10;13.70;;;17.20;99.90;;;;;;5021107;28;20199;-52
2022/08/19 07:57:05;;;;;;;15.77;14.20;;;17.10;99.90;;;;;;5014447;28;20199;-52
2022/08/19 07:59:33;;;;;;;14.13;12.93;;;17.10;99.90;;;;;;5013738;28;20229;-51
2022/08/19 08:02:00;;;;;;;16.83;13.57;;;17.20;99.90;;;;;;5014886;28;20207;-52
2022/08/19 08:09:59;;;;;;;16.73;15.13;;;17.20;99.90;;;;;;5026863;28;20806;-52
2022/08/19 08:12:30;;;;;;;16.70;14.57;;;17.20;99.90;;;;;;5031293;28;20688;-52
2022/08/19 08:14:58;;;;;;;15.60;14.10;;;17.10;99.90;;;;;;5026699;28;20230;-52
2022/08/19 08:17:27;;;;;;;14.83;13.53;;;17.20;99.90;;;;;;5017614;28;20213;-52
2022/08/19 08:19:56;;;;;;;16.60;15.00;;;17.20;99.90;;;;;;5016575;28;20270;-52
2022/08/19 08:25:14;;;;;;;15.37;13.90;;;17.20;99.90;;;;;;5026547;28;20256;-52
2022/08/19 08:27:43;;;;;;;14.77;12.37;;;17.10;99.90;;;;;;5020527;28;20203;-52
2022/08/19 08:30:13;;;;;;;14.23;12.47;;;17.10;99.90;;;;;;5026883;28;20198;-51
2022/08/19 08:32:41;;;;;;;13.10;11.83;;;17.20;99.90;;;;;;5025062;28;20214;-52
2022/08/19 08:35:12;;;;;;;13.50;12.10;;;17.10;99.90;;;;;;5025051;28;20241;-51
2022/08/19 08:37:41;;;;;;;14.70;13.30;;;17.20;99.90;;;;;;5028520;28;20207;-52
2022/08/19 08:40:18;;;;;;;14.47;13.10;;;17.20;99.90;;;;;;5029141;28;20198;-52
2022/08/19 08:42:52;;;;;;;15.47;13.83;;;17.20;99.90;;;;;;5029966;28;20206;-52
2022/08/19 08:45:20;;;;;;;13.17;11.93;;;17.20;99.90;;;;;;5026326;28;20238;-52
2022/08/19 08:47:53;;;;;;;13.07;11.77;;;17.20;99.90;;;;;;5029508;28;20206;-52
2022/08/19 08:50:24;;;;;;;15.00;12.57;;;17.20;99.90;;;;;;5031729;28;20734;-51
2022/08/19 08:52:56;;;;;;;14.93;13.43;;;17.20;99.90;;;;;;5031132;28;20621;-51
2022/08/19 08:55:26;;;;;;;13.40;12.07;;;17.20;99.90;;;;;;5030601;28;20587;-51
2022/08/19 08:57:56;;;;;;;12.90;11.80;;;17.20;99.90;;;;;;5022777;28;20199;-51
2022/08/19 09:00:26;;;;;;;13.47;12.27;;;17.20;99.90;;;;;;5032260;28;20576;-51
2022/08/19 09:02:54;;;;;;;13.67;12.37;;;17.20;99.90;;;;;;5029944;28;20731;-51
2022/08/19 09:05:22;;;;;;;12.60;11.43;;;17.20;99.90;;;;;;5031267;28;20314;-52
2022/08/19 09:08:03;;;;;;;13.53;12.20;;;17.20;99.90;;;;;;5031326;28;20253;-51
2022/08/19 09:10:38;;;;;;;13.03;11.97;;;17.20;99.90;;;;;;5028319;28;20203;-52
2022/08/19 09:13:13;;;;;;;13.20;12.00;;;17.20;99.90;;;;;;5025605;28;20627;-52
2022/08/19 09:15:46;;;;;;;13.60;12.37;;;17.20;99.90;;;;;;5029727;28;20761;-52
2022/08/19 09:18:13;;;;;;;13.57;12.17;;;17.20;99.90;;;;;;5031204;28;20230;-52
2022/08/19 09:20:42;;;;;;;14.03;12.53;;;17.20;99.90;;;;;;5029172;28;20206;-52
2022/08/19 09:23:11;;;;;;;14.63;12.90;;;17.30;99.90;;;;;;5024977;28;20210;-51
2022/08/19 09:25:39;;;;;;;11.63;10.53;;;17.40;99.90;;;;;;5030185;28;20620;-51
2022/08/19 09:28:07;;;;;;;9.50;8.80;;;17.40;99.90;;;;;;5020249;28;20203;-51
2022/08/19 09:30:40;;;;;;;8.03;7.33;;;17.40;99.90;;;;;;5030393;28;20227;-52
2022/08/19 09:33:08;;;;;;;7.50;6.87;;;17.40;99.90;;;;;;5029282;28;20260;-51
2022/08/19 09:35:35;;;;;;;6.80;6.30;;;17.40;99.90;;;;;;5031312;28;20222;-51
2022/08/19 09:38:02;;;;;;;6.93;6.47;;;17.40;99.90;;;;;;5029640;28;20206;-51
2022/08/19 09:40:31;;;;;;;5.33;4.93;;;17.40;99.90;;;;;;5027810;28;20260;-51
2022/08/19 09:43:02;;;;;;;5.20;4.80;;;17.30;99.90;;;;;;5021123;28;20241;-51
2022/08/19 09:45:29;;;;;;;4.40;4.20;;;17.30;99.90;;;;;;5030769;28;20226;-51
2022/08/19 09:47:57;;;;;;;3.77;3.57;;;17.20;99.90;;;;;;5026181;28;20288;-51
2022/08/19 09:50:25;;;;;;;4.63;4.33;;;17.20;99.90;;;;;;5030437;28;20252;-51
2022/08/19 09:52:53;;;;;;;6.63;6.10;;;17.10;99.90;;;;;;5028886;28;20201;-51
2022/08/19 09:55:20;;;;;;;6.70;6.10;;;17.20;99.90;;;;;;5030662;28;20309;-51
2022/08/19 09:57:49;;;;;;;8.97;8.27;;;17.10;99.90;;;;;;5026186;28;20202;-51
2022/08/19 10:00:16;;;;;;;6.60;6.20;;;17.20;99.90;;;;;;5025315;28;20252;-51
2022/08/19 10:02:43;;;;;;;9.43;8.63;;;17.10;99.90;;;;;;5029249;28;20693;-51
2022/08/19 10:07:54;;;;;;;8.97;8.23;;;17.10;99.90;;;;;;5021156;28;20265;-50
2022/08/19 10:10:22;;;;;;;7.83;7.33;;;17.20;99.90;;;;;;5031246;28;20202;-51
2022/08/19 10:12:50;;;;;;;7.63;7.13;;;17.20;99.90;;;;;;5031334;28;20206;-51
2022/08/19 10:15:20;;;;;;;6.47;5.97;;;17.10;99.90;;;;;;5030712;28;20226;-51
2022/08/19 10:17:47;;;;;;;6.80;6.20;;;17.20;99.90;;;;;;5022913;28;20265;-51
2022/08/19 10:20:14;;;;;;;6.27;5.87;;;17.20;99.90;;;;;;5025164;28;20326;-51
2022/08/19 10:22:43;;;;;;;6.57;6.03;;;17.20;99.90;;;;;;5027955;28;20683;-51
2022/08/19 10:25:10;;;;;;;9.27;8.47;;;17.20;99.90;;;;;;5030715;28;20676;-51
2022/08/19 10:27:37;;;;;;;9.97;9.17;;;17.10;99.90;;;;;;5028338;28;20650;-51
2022/08/19 10:30:07;;;;;;;10.27;9.37;;;17.10;99.90;;;;;;5033661;28;20319;-51
2022/08/19 10:32:34;;;;;;;11.23;10.13;;;17.20;99.90;;;;;;5030807;28;20453;-51
2022/08/19 10:35:01;;;;;;;8.70;8.00;;;17.10;99.90;;;;;;5026982;28;20246;-51
2022/08/19 10:37:30;;;;;;;8.30;7.60;;;17.10;99.90;;;;;;5027613;28;20209;-51
2022/08/19 10:39:57;;;;;;;8.70;7.97;;;17.00;99.90;;;;;;5034648;28;20676;-51
2022/08/19 10:42:24;;;;;;;9.97;9.07;;;17.00;99.90;;;;;;5034619;28;20206;-51
2022/08/19 10:44:51;;;;;;;11.10;10.10;;;17.10;99.90;;;;;;5034486;28;20249;-51
2022/08/19 10:47:20;;;;;;;9.17;8.37;;;17.00;99.90;;;;;;5033520;28;20284;-51
2022/08/19 10:52:34;;;;;;;6.47;5.97;;;17.00;99.90;;;;;;5024410;28;20221;-51
2022/08/19 10:57:46;;;;;;;5.27;4.87;;;17.00;99.90;;;;;;5020623;28;20326;-52
2022/08/19 11:00:14;;;;;;;6.17;5.67;;;17.00;99.90;;;;;;5013950;28;20202;-51
2022/08/19 11:02:42;;;;;;;8.43;7.82;;;17.00;99.90;;;;;;5031792;28;20444;-51
2022/08/19 11:05:10;;;;;;;6.83;6.30;;;17.00;99.90;;;;;;5025048;28;20374;-51
2022/08/19 11:07:38;;;;;;;7.40;6.83;;;17.00;99.90;;;;;;5018042;28;20759;-51
2022/08/19 11:10:07;;;;;;;7.03;6.43;;;17.10;99.90;;;;;;5020820;28;20229;-51
2022/08/19 11:12:34;;;;;;;7.43;6.73;;;17.00;99.90;;;;;;5016534;28;20199;-51
2022/08/19 11:15:01;;;;;;;7.37;6.87;;;17.00;99.90;;;;;;5012968;28;20227;-51
2022/08/19 11:17:30;;;;;;;6.23;5.73;;;17.00;99.90;;;;;;5027076;28;20664;-51
2022/08/19 11:20:03;;;;;;;5.20;4.77;;;16.90;99.90;;;;;;5022553;28;20195;-51
2022/08/19 11:22:30;;;;;;;4.87;4.13;;;16.90;99.90;;;;;;5025850;28;20404;-51
2022/08/19 11:24:57;;;;;;;4.30;4.00;;;17.00;99.90;;;;;;5014882;28;20253;-51
2022/08/19 11:27:24;;;;;;;3.90;3.70;;;17.00;99.90;;;;;;5022106;28;20254;-51
2022/08/19 11:29:52;;;;;;;4.30;4.00;;;17.00;99.90;;;;;;5015521;28;20203;-51
2022/08/19 11:32:19;;;;;;;2.63;2.43;;;16.90;99.90;;;;;;5033320;28;20207;-51
2022/08/19 11:34:46;;;;;;;2.47;2.37;;;16.90;99.90;;;;;;5031427;28;20276;-53
2022/08/19 11:37:15;;;;;;;1.73;1.73;;;16.90;99.90;;;;;;5028505;28;20199;-53
2022/08/19 11:39:42;;;;;;;1.90;1.80;;;16.80;99.90;;;;;;5029621;28;20987;-53
2022/08/19 11:44:50;;;;;;;1.20;1.20;;;16.80;99.90;;;;;;5014218;28;20215;-51
2022/08/19 11:47:17;;;;;;;1.77;1.70;;;16.70;99.90;;;;;;5025030;28;20195;-51
2022/08/19 11:49:46;;;;;;;2.47;2.37;;;16.70;99.90;;;;;;5031613;28;20600;-53
2022/08/19 11:52:14;;;;;;;2.27;2.10;;;16.60;99.90;;;;;;5022452;28;20633;-52
2022/08/19 11:54:41;;;;;;;2.77;1.67;;;16.60;99.90;;;;;;5025475;28;20738;-51
2022/08/19 11:57:08;;;;;;;2.23;2.03;;;16.60;99.90;;;;;;5022315;28;20250;-52
2022/08/19 11:59:35;;;;;;;1.80;1.60;;;16.60;99.90;;;;;;5012857;28;20222;-52
2022/08/19 12:02:03;;;;;;;1.50;1.50;;;16.60;99.90;;;;;;5012671;28;20593;-51
2022/08/19 12:04:30;;;;;;;1.37;1.37;;;16.60;99.90;;;;;;5012387;28;20199;-51
2022/08/19 12:06:57;;;;;;;1.77;1.67;;;16.60;99.90;;;;;;5017526;28;20230;-51
2022/08/19 12:09:25;;;;;;;1.63;1.63;;;16.60;99.90;;;;;;5014592;28;20195;-52
2022/08/19 12:11:52;;;;;;;1.10;1.10;;;16.60;99.90;;;;;;5022575;28;20207;-51
2022/08/19 12:14:19;;;;;;;1.07;1.03;;;16.70;99.90;;;;;;5027518;28;20630;-52
2022/08/19 12:16:47;;;;;;;1.10;0.90;;;16.60;99.90;;;;;;5012452;28;20207;-51
2022/08/19 12:19:17;;;;;;;1.17;1.17;;;16.60;99.90;;;;;;5030475;28;20298;-52
2022/08/19 12:21:44;;;;;;;1.20;1.10;;;16.60;99.90;;;;;;5029200;28;20207;-52
2022/08/19 12:24:12;;;;;;;0.70;0.70;;;16.60;99.90;;;;;;5022571;28;20203;-52
2022/08/19 12:26:41;;;;;;;1.17;0.83;;;16.60;99.90;;;;;;5017526;28;20707;-51
2022/08/19 12:29:08;;;;;;;1.00;1.00;;;16.60;99.90;;;;;;5013018;28;20222;-52
2022/08/19 12:31:35;;;;;;;0.87;0.87;;;16.60;99.90;;;;;;5022111;28;20658;-52
2022/08/19 12:34:02;;;;;;;0.83;0.60;;;16.60;99.90;;;;;;5030663;28;20244;-51
2022/08/19 12:36:30;;;;;;;0.30;0.30;;;16.70;99.90;;;;;;5030708;28;20210;-52
2022/08/19 12:38:59;;;;;;;0.50;0.50;;;16.70;99.90;;;;;;5020107;28;20276;-51
2022/08/19 12:41:26;;;;;;;0.50;0.50;;;16.70;99.90;;;;;;5014173;28;20287;-52
2022/08/19 12:43:55;;;;;;;2.10;0.50;;;16.70;99.90;;;;;;5011674;28;20199;-52
2022/08/19 12:46:22;;;;;;;0.70;0.50;;;16.70;99.90;;;;;;5015374;28;20237;-51
2022/08/19 12:48:49;;;;;;;0.50;0.40;;;16.70;99.90;;;;;;5030564;28;20203;-51
2022/08/19 12:51:19;;;;;;;0.70;0.50;;;16.80;99.90;;;;;;5030385;28;20631;-52
2022/08/19 12:53:46;;;;;;;0.50;0.50;;;16.80;99.90;;;;;;5023272;28;20331;-52
2022/08/19 12:56:15;;;;;;;0.47;0.47;;;16.80;99.90;;;;;;5019703;28;20269;-52
2022/08/19 12:58:42;;;;;;;1.33;0.60;;;16.70;99.90;;;;;;5011500;28;20207;-52
2022/08/19 13:01:14;;;;;;;0.50;0.50;;;16.70;99.90;;;;;;5012429;28;20751;-51
2022/08/19 13:03:42;;;;;;;0.40;0.40;;;16.70;99.90;;;;;;5024287;28;20211;-51
2022/08/19 13:06:10;;;;;;;0.40;0.40;;;16.70;99.90;;;;;;5015396;28;20223;-51